createdAt,value
2018-07-27T00:00:12.826Z,90.60
2018-07-27T00:02:46.967Z,90.40
2018-07-27T00:05:20.633Z,90.60
2018-07-27T00:07:52.952Z,90.60
2018-07-27T00:10:25.703Z,90.50
2018-07-27T00:12:59.564Z,90.50
2018-07-27T00:15:32.132Z,90.60
2018-07-27T00:18:05.044Z,90.40
2018-07-27T00:20:38.038Z,90.50
2018-07-27T00:23:10.502Z,90.50
2018-07-27T00:25:43.483Z,90.10
2018-07-27T00:28:16.658Z,90.00
2018-07-27T00:30:49.133Z,89.90
2018-07-27T00:33:22.111Z,90.00
2018-07-27T00:35:54.109Z,90.00
2018-07-27T00:38:27.100Z,90.20
2018-07-27T00:40:59.820Z,90.20
2018-07-27T00:43:32.663Z,90.10
2018-07-27T00:46:05.318Z,89.90
2018-07-27T00:48:38.510Z,90.00
2018-07-27T00:51:10.621Z,90.10
2018-07-27T00:53:43.167Z,90.10
2018-07-27T00:56:16.545Z,90.10
2018-07-27T00:58:49.360Z,90.20
2018-07-27T01:01:21.514Z,90.20
2018-07-27T01:03:54.177Z,90.30
2018-07-27T01:06:26.421Z,90.30
2018-07-27T01:08:59.564Z,90.10
2018-07-27T01:11:31.863Z,90.10
2018-07-27T01:14:05.813Z,90.10
2018-07-27T01:16:38.847Z,90.00
2018-07-27T01:21:43.258Z,89.70
2018-07-27T01:24:15.834Z,89.20
2018-07-27T01:26:49.260Z,89.20
2018-07-27T01:29:22.127Z,89.50
2018-07-27T01:31:54.718Z,89.30
2018-07-27T01:34:28.202Z,89.20
2018-07-27T01:37:00.708Z,89.70
2018-07-27T01:39:33.527Z,90.00
2018-07-27T01:42:06.292Z,90.00
2018-07-27T01:44:38.596Z,90.20
2018-07-27T01:47:10.995Z,90.40
2018-07-27T01:49:44.119Z,90.50
2018-07-27T01:52:17.627Z,90.60
2018-07-27T01:54:50.868Z,90.60
2018-07-27T01:59:56.839Z,90.70
2018-07-27T02:02:29.560Z,90.50
2018-07-27T02:05:01.628Z,90.40
2018-07-27T02:07:34.525Z,90.90
2018-07-27T02:10:07.104Z,90.70
2018-07-27T02:12:39.105Z,90.90
2018-07-27T02:15:11.868Z,91.00
2018-07-27T02:17:45.211Z,91.10
2018-07-27T02:20:18.794Z,91.10
2018-07-27T02:22:52.726Z,91.00
2018-07-27T02:25:25.262Z,91.00
2018-07-27T02:27:57.825Z,91.00
2018-07-27T02:30:30.009Z,91.00
2018-07-27T02:33:02.279Z,91.00
2018-07-27T02:35:36.015Z,90.70
2018-07-27T02:38:09.034Z,90.40
2018-07-27T02:40:41.399Z,90.40
2018-07-27T02:43:14.873Z,90.20
2018-07-27T02:45:46.932Z,90.10
2018-07-27T02:48:19.343Z,90.10
2018-07-27T02:50:52.531Z,90.40
2018-07-27T02:53:24.982Z,90.50
2018-07-27T02:55:57.606Z,90.60
2018-07-27T02:58:29.752Z,90.60
2018-07-27T03:01:02.430Z,90.70
2018-07-27T03:03:34.988Z,90.70
2018-07-27T03:06:08.879Z,90.60
2018-07-27T03:08:42.004Z,90.40
2018-07-27T03:11:15.210Z,90.50
2018-07-27T03:13:47.771Z,90.30
2018-07-27T03:16:20.771Z,90.50
2018-07-27T03:18:54.260Z,90.60
2018-07-27T03:21:32.299Z,90.70
2018-07-27T03:24:04.206Z,90.70
2018-07-27T03:26:36.788Z,90.50
2018-07-27T03:29:09.305Z,90.30
2018-07-27T03:31:42.816Z,90.50
2018-07-27T03:34:15.712Z,90.70
2018-07-27T03:36:48.497Z,90.90
2018-07-27T03:39:21.711Z,90.90
2018-07-27T03:41:54.624Z,90.90
2018-07-27T03:44:31.723Z,90.90
2018-07-27T03:47:04.303Z,90.70
2018-07-27T03:49:37.228Z,90.60
2018-07-27T03:52:09.860Z,90.60
2018-07-27T03:54:42.778Z,90.70
2018-07-27T03:57:15.182Z,90.60
2018-07-27T03:59:47.440Z,90.50
2018-07-27T04:02:20.681Z,90.50
2018-07-27T04:04:53.228Z,90.50
2018-07-27T04:07:26.380Z,90.60
2018-07-27T04:09:59.275Z,90.70
2018-07-27T04:12:31.529Z,90.80
2018-07-27T04:15:04.223Z,90.80
2018-07-27T04:17:37.070Z,90.90
2018-07-27T04:20:09.577Z,91.00
2018-07-27T04:22:42.555Z,90.90
2018-07-27T04:25:16.021Z,90.80
2018-07-27T04:27:48.652Z,90.80
2018-07-27T04:30:21.134Z,90.80
2018-07-27T04:32:53.358Z,90.80
2018-07-27T04:35:25.963Z,90.80
2018-07-27T04:37:58.691Z,90.90
2018-07-27T04:40:32.051Z,90.90
2018-07-27T04:43:05.130Z,90.60
2018-07-27T04:45:37.677Z,90.50
2018-07-27T04:48:10.840Z,90.50
2018-07-27T04:50:43.139Z,90.30
2018-07-27T04:55:48.564Z,90.00
2018-07-27T04:58:21.107Z,89.90
2018-07-27T05:00:53.644Z,89.40
2018-07-27T05:03:26.322Z,88.90
2018-07-27T05:05:58.758Z,88.70
2018-07-27T05:08:31.399Z,88.50
2018-07-27T05:11:03.973Z,88.00
2018-07-27T05:13:36.663Z,87.90
2018-07-27T05:16:08.859Z,88.10
2018-07-27T05:18:43.543Z,88.40
2018-07-27T05:21:16.466Z,88.50
2018-07-27T05:23:48.530Z,88.30
2018-07-27T05:26:21.724Z,88.00
2018-07-27T05:28:54.783Z,87.50
2018-07-27T05:31:28.257Z,86.90
2018-07-27T05:34:01.057Z,87.00
2018-07-27T05:36:34.249Z,87.70
2018-07-27T05:39:10.560Z,87.70
2018-07-27T05:41:43.274Z,87.70
2018-07-27T05:44:18.590Z,88.60
2018-07-27T05:46:51.139Z,88.20
2018-07-27T05:49:25.439Z,88.10
2018-07-27T05:51:58.784Z,88.40
2018-07-27T05:54:32.406Z,88.30
2018-07-27T05:57:05.269Z,88.50
2018-07-27T05:59:37.820Z,88.90
2018-07-27T06:02:11.911Z,89.50
2018-07-27T08:14:21.595Z,88.80
2018-07-27T08:16:54.232Z,74.00
2018-07-27T08:19:27.004Z,73.20
2018-07-27T08:21:59.846Z,72.10
2018-07-27T08:24:32.135Z,72.70
2018-07-27T08:27:05.438Z,71.90
2018-07-27T08:29:41.428Z,71.10
2018-07-27T08:32:14.311Z,71.00
2018-07-27T08:34:46.935Z,72.20
2018-07-27T08:39:51.594Z,70.50
2018-07-27T08:42:24.501Z,71.50
2018-07-27T08:44:57.458Z,71.20
2018-07-27T08:47:30.299Z,71.60
2018-07-27T08:50:03.390Z,69.60
2018-07-27T08:52:35.859Z,70.00
2018-07-27T08:55:08.706Z,69.20
2018-07-27T08:57:41.257Z,67.90
2018-07-27T09:00:14.010Z,67.80
2018-07-27T09:02:46.710Z,69.40
2018-07-27T09:05:19.682Z,69.00
2018-07-27T09:07:52.252Z,68.90
2018-07-27T09:10:24.382Z,65.20
2018-07-27T09:12:57.327Z,64.80
2018-07-27T09:15:29.764Z,62.30
2018-07-27T09:18:02.088Z,63.00
2018-07-27T09:20:34.510Z,62.00
2018-07-27T09:23:07.061Z,61.70
2018-07-27T09:25:40.211Z,61.20
2018-07-27T09:28:12.781Z,61.60
2018-07-27T09:33:16.761Z,61.70
2018-07-27T09:35:49.321Z,60.50
2018-07-27T09:38:22.592Z,60.10
2018-07-27T09:43:26.904Z,60.30
2018-07-27T09:45:59.382Z,58.50
2018-07-27T09:48:31.552Z,58.70
2018-07-27T09:51:03.732Z,59.20
2018-07-27T09:53:35.833Z,59.10
2018-07-27T09:56:07.835Z,58.70
2018-07-27T09:58:39.875Z,57.30
2018-07-27T10:01:16.999Z,55.90
2018-07-27T10:03:49.621Z,59.40
2018-07-27T10:06:21.833Z,58.30
2018-07-27T10:08:54.488Z,57.10
2018-07-27T10:11:26.746Z,56.80
2018-07-27T10:17:07.093Z,55.40
2018-07-27T10:19:39.342Z,55.90
2018-07-27T10:22:11.986Z,55.20
2018-07-27T10:24:44.801Z,54.20
2018-07-27T10:29:50.512Z,54.60
2018-07-27T10:32:28.764Z,53.40
2018-07-27T10:35:02.650Z,52.80
2018-07-27T10:37:35.918Z,54.20
2018-07-27T10:40:10.175Z,55.10
2018-07-27T10:42:44.701Z,55.20
2018-07-27T10:45:18.137Z,52.90
2018-07-27T10:47:51.963Z,53.30
2018-07-27T10:50:25.935Z,52.80
2018-07-27T10:53:00.651Z,53.10
2018-07-27T10:55:33.724Z,52.90
2018-07-27T10:58:06.860Z,55.10
2018-07-27T11:00:40.935Z,53.60
2018-07-27T11:03:14.561Z,54.30
2018-07-27T11:05:49.419Z,51.50
2018-07-27T11:10:54.993Z,51.50
2018-07-27T11:13:29.215Z,52.30
2018-07-27T11:18:34.864Z,54.00
2018-07-27T11:21:07.730Z,49.70
2018-07-27T11:23:41.394Z,51.20
2018-07-27T11:26:15.030Z,51.60
2018-07-27T11:28:48.805Z,51.00
2018-07-27T11:31:21.757Z,51.00
2018-07-27T11:33:55.575Z,50.80
2018-07-27T11:36:29.340Z,51.60
2018-07-27T11:39:04.855Z,49.20
2018-07-27T11:41:38.300Z,49.00
2018-07-27T11:44:12.063Z,49.70
2018-07-27T11:46:46.240Z,48.60
2018-07-27T11:49:20.023Z,50.10
2018-07-27T11:51:53.669Z,51.50
2018-07-27T11:54:27.745Z,50.80
2018-07-27T11:57:00.546Z,49.80
2018-07-27T11:59:34.383Z,46.50
2018-07-27T12:02:07.685Z,46.10
2018-07-27T12:04:41.440Z,47.80
2018-07-27T12:07:16.049Z,49.20
2018-07-27T12:09:49.009Z,48.90
2018-07-27T12:12:22.730Z,48.10
2018-07-27T12:14:56.969Z,46.40
2018-07-27T12:17:31.132Z,50.30
2018-07-27T12:20:04.612Z,48.60
2018-07-27T12:22:38.180Z,48.00
2018-07-27T12:25:11.738Z,45.40
2018-07-27T12:27:44.999Z,46.10
2018-07-27T12:30:19.175Z,46.10
2018-07-27T12:32:52.620Z,46.30
2018-07-27T12:35:26.990Z,48.00
2018-07-27T12:38:00.437Z,47.50
2018-07-27T12:40:33.638Z,50.40
2018-07-27T12:43:07.096Z,51.60
2018-07-27T12:45:40.389Z,49.90
2018-07-27T12:48:13.537Z,50.80
2018-07-27T12:50:47.833Z,52.40
2018-07-27T12:53:21.620Z,51.00
2018-07-27T12:55:54.880Z,52.20
2018-07-27T12:58:28.197Z,50.90
2018-07-27T13:01:05.457Z,50.80
2018-07-27T13:03:39.079Z,50.00
2018-07-27T13:06:13.010Z,49.90
2018-07-27T13:11:19.410Z,48.80
2018-07-27T13:13:53.191Z,50.70
2018-07-27T13:16:26.977Z,52.00
2018-07-27T13:19:00.898Z,52.30
2018-07-27T13:21:36.247Z,54.80
2018-07-27T13:24:09.769Z,55.90
2018-07-27T13:26:43.084Z,56.20
2018-07-27T13:31:51.775Z,57.50
2018-07-27T13:34:44.984Z,57.70
2018-07-27T13:39:51.215Z,58.50
2018-07-27T13:44:58.783Z,59.10
2018-07-27T13:50:04.946Z,59.70
2018-07-27T13:52:38.167Z,63.90
2018-07-27T13:55:11.543Z,63.50
2018-07-27T13:57:44.529Z,62.90
2018-07-27T14:00:18.412Z,61.60
2018-07-27T14:02:51.702Z,61.90
2018-07-27T14:05:24.553Z,61.90
2018-07-27T14:07:58.339Z,61.70
2018-07-27T14:10:31.051Z,62.60
2018-07-27T14:13:04.017Z,64.40
2018-07-27T14:15:38.153Z,66.10
2018-07-27T14:18:11.898Z,67.90
2018-07-27T14:20:45.434Z,68.80
2018-07-27T14:23:18.781Z,68.40
2018-07-27T14:25:52.348Z,68.20
2018-07-27T14:28:26.000Z,68.50
2018-07-27T14:30:59.301Z,68.80
2018-07-27T14:33:32.154Z,69.90
2018-07-27T14:36:05.379Z,70.10
2018-07-27T14:38:38.908Z,68.60
2018-07-27T14:41:12.374Z,70.00
2018-07-27T14:43:45.433Z,71.20
2018-07-27T14:48:50.865Z,72.70
2018-07-27T14:51:24.568Z,73.80
2018-07-27T14:53:57.931Z,73.40
2018-07-27T14:56:32.414Z,74.20
2018-07-27T14:59:06.754Z,74.80
2018-07-27T15:01:41.073Z,75.40
2018-07-27T15:04:14.996Z,74.90
2018-07-27T15:06:47.804Z,76.00
2018-07-27T15:09:21.243Z,74.50
2018-07-27T15:11:54.655Z,75.40
2018-07-27T15:14:28.107Z,74.80
2018-07-27T15:17:01.919Z,74.40
2018-07-27T15:19:35.621Z,73.80
2018-07-27T15:22:09.470Z,72.60
2018-07-27T15:24:43.044Z,71.80
2018-07-27T15:27:16.817Z,72.60
2018-07-27T15:29:49.532Z,73.80
2018-07-27T15:32:23.234Z,74.00
2018-07-27T15:34:56.828Z,73.70
2018-07-27T15:37:29.958Z,72.30
2018-07-27T15:40:03.376Z,71.90
2018-07-27T15:42:36.768Z,71.90
2018-07-27T15:45:10.838Z,72.90
2018-07-27T15:47:44.216Z,73.40
2018-07-27T15:50:16.171Z,73.00
2018-07-27T15:52:48.095Z,73.20
2018-07-27T15:55:20.996Z,72.40
2018-07-27T15:57:53.264Z,71.90
2018-07-27T16:00:25.568Z,71.50
2018-07-27T16:02:57.692Z,69.70
2018-07-27T16:05:29.925Z,69.50
2018-07-27T16:08:02.356Z,70.40
2018-07-27T16:10:34.440Z,70.10
2018-07-27T16:13:06.826Z,71.10
2018-07-27T16:15:39.317Z,72.00
2018-07-27T16:18:11.531Z,71.90
2018-07-27T16:20:43.999Z,71.40
2018-07-27T16:23:16.451Z,72.40
2018-07-27T16:25:48.825Z,73.90
2018-07-27T16:28:21.170Z,74.60
2018-07-27T16:30:53.798Z,73.10
2018-07-27T16:33:26.525Z,71.40
2018-07-27T16:35:58.649Z,71.80
2018-07-27T16:38:30.811Z,72.40
2018-07-27T16:41:03.875Z,72.80
2018-07-27T16:46:09.216Z,73.40
2018-07-27T16:48:41.440Z,73.70
2018-07-27T16:51:13.665Z,74.20
2018-07-27T16:53:45.777Z,74.40
2018-07-27T16:56:18.119Z,74.70
2018-07-27T16:58:51.102Z,75.30
2018-07-27T17:01:23.358Z,75.60
2018-07-27T17:06:27.491Z,75.70
2018-07-27T17:08:59.598Z,77.10
2018-07-27T17:11:31.616Z,76.40
2018-07-27T17:14:03.745Z,77.00
2018-07-27T17:16:37.100Z,77.80
2018-07-27T17:21:41.453Z,77.60
2018-07-27T17:26:46.015Z,76.50
2018-07-27T17:29:18.464Z,76.00
2018-07-27T17:34:23.674Z,74.60
2018-07-27T17:36:55.731Z,74.20
2018-07-27T17:39:27.891Z,74.30
2018-07-27T17:42:00.165Z,74.50
2018-07-27T17:44:32.334Z,75.20
2018-07-27T17:47:04.330Z,75.80
2018-07-27T17:49:36.444Z,76.30
2018-07-27T17:52:08.538Z,76.90
2018-07-27T17:54:40.519Z,77.60
2018-07-27T17:57:12.695Z,77.80
2018-07-27T17:59:44.752Z,78.50
2018-07-27T18:02:16.821Z,79.50
2018-07-27T18:04:49.303Z,80.40
2018-07-27T18:07:21.558Z,81.10
2018-07-27T18:09:54.274Z,81.40
2018-07-27T18:12:26.956Z,81.30
2018-07-27T18:14:58.858Z,81.30
2018-07-27T18:17:31.857Z,81.20
2018-07-27T18:22:35.789Z,82.20
2018-07-27T18:25:15.848Z,83.10
2018-07-27T18:27:48.202Z,83.30
2018-07-27T18:30:20.555Z,82.90
2018-07-27T18:32:52.862Z,82.80
2018-07-27T18:35:25.238Z,82.40
2018-07-27T18:40:30.104Z,83.10
2018-07-27T18:43:02.131Z,83.10
2018-07-27T18:45:34.279Z,83.60
2018-07-27T18:48:06.364Z,83.30
2018-07-27T18:50:38.891Z,83.10
2018-07-27T18:53:11.306Z,83.20
2018-07-27T18:55:43.766Z,83.30
2018-07-27T18:58:16.705Z,83.00
2018-07-27T19:00:49.130Z,83.30
2018-07-27T19:03:21.247Z,83.30
2018-07-27T19:05:53.367Z,83.30
2018-07-27T19:08:25.951Z,83.30
2018-07-27T19:10:58.121Z,83.50
2018-07-27T19:13:30.608Z,83.70
2018-07-27T19:16:02.697Z,83.50
2018-07-27T19:18:34.976Z,83.60
2018-07-27T19:21:07.474Z,84.00
2018-07-27T19:23:40.191Z,84.70
2018-07-27T19:26:12.678Z,85.10
2018-07-27T19:28:45.020Z,85.30
2018-07-27T19:31:18.122Z,85.30
2018-07-27T19:33:50.463Z,84.90
2018-07-27T19:36:22.732Z,85.20
2018-07-27T19:41:26.596Z,85.40
2018-07-27T19:43:59.156Z,85.50
2018-07-27T19:46:32.212Z,86.10
2018-07-27T19:49:04.626Z,86.40
2018-07-27T19:51:37.440Z,86.70
2018-07-27T19:54:09.637Z,86.70
2018-07-27T19:56:42.235Z,86.50
2018-07-27T19:59:14.541Z,86.70
2018-07-27T20:01:47.055Z,87.10
2018-07-27T20:04:19.436Z,87.10
2018-07-27T20:06:52.035Z,86.90
2018-07-27T20:09:24.106Z,86.80
2018-07-27T20:11:57.736Z,87.00
2018-07-27T20:14:29.887Z,86.90
2018-07-27T20:17:02.033Z,86.90
2018-07-27T20:19:34.025Z,86.60
2018-07-27T20:24:37.929Z,86.60
2018-07-27T20:27:10.050Z,86.40
2018-07-27T20:29:41.644Z,86.30
2018-07-27T20:32:13.798Z,86.50
2018-07-27T20:34:46.350Z,86.80
2018-07-27T20:37:18.615Z,87.10
2018-07-27T20:39:51.284Z,87.30
2018-07-27T20:42:24.068Z,87.70
2018-07-27T20:44:57.646Z,87.50
2018-07-27T20:47:29.759Z,87.30
2018-07-27T20:50:02.803Z,87.50
2018-07-27T20:52:34.913Z,87.70
2018-07-27T20:55:06.926Z,87.60
2018-07-27T20:57:39.199Z,87.30
2018-07-27T21:00:13.055Z,87.10
2018-07-27T21:05:18.142Z,86.90
2018-07-27T21:07:50.540Z,87.00
2018-07-27T21:10:22.891Z,86.90
2018-07-27T21:12:55.048Z,86.70
2018-07-27T21:15:27.126Z,86.50
2018-07-27T21:17:59.120Z,86.00
2018-07-27T21:20:32.020Z,85.00
2018-07-27T21:23:04.420Z,84.80
2018-07-27T21:25:37.356Z,85.30
2018-07-27T21:28:09.521Z,86.10
2018-07-27T21:30:42.176Z,86.30
2018-07-27T21:33:14.696Z,86.50
2018-07-27T21:35:46.906Z,86.60
2018-07-27T21:38:19.092Z,86.80
2018-07-27T21:40:51.136Z,86.60
2018-07-27T21:43:23.334Z,86.70
2018-07-27T21:45:56.857Z,86.80
2018-07-27T21:48:29.290Z,86.80
2018-07-27T21:51:01.745Z,86.80
2018-07-27T21:53:33.669Z,86.80
2018-07-27T21:56:05.824Z,86.80
2018-07-27T21:58:38.285Z,87.10
2018-07-27T22:01:10.713Z,87.50
2018-07-27T22:03:43.016Z,87.70
2018-07-27T22:06:15.386Z,87.70
2018-07-27T22:08:47.515Z,87.70
2018-07-27T22:11:19.540Z,87.80
2018-07-27T22:13:51.691Z,87.90
2018-07-27T22:16:23.700Z,87.70
2018-07-27T22:18:55.850Z,87.30
2018-07-27T22:21:27.755Z,87.50
2018-07-27T22:23:59.927Z,87.60
2018-07-27T22:26:32.142Z,87.70
2018-07-27T22:29:05.245Z,87.80
2018-07-27T22:31:37.495Z,88.10
2018-07-27T22:34:09.525Z,88.40
2018-07-27T22:36:41.201Z,88.50
2018-07-27T22:39:13.218Z,88.90
2018-07-27T22:41:45.160Z,89.20
2018-07-27T22:44:16.866Z,89.30
2018-07-27T22:46:49.739Z,89.50
2018-07-27T22:49:21.898Z,89.70
2018-07-27T22:51:53.775Z,89.80
2018-07-27T22:54:25.668Z,90.00
2018-07-27T22:56:57.608Z,90.00
2018-07-27T22:59:29.314Z,90.10
2018-07-27T23:02:01.310Z,90.10
2018-07-27T23:04:33.383Z,90.10
2018-07-27T23:07:05.277Z,90.10
2018-07-27T23:12:08.302Z,89.60
2018-07-27T23:17:11.473Z,90.00
2018-07-27T23:19:43.357Z,90.10
2018-07-27T23:24:46.354Z,90.20
2018-07-27T23:27:19.122Z,90.10
2018-07-27T23:29:51.269Z,90.30
2018-07-27T23:37:25.366Z,90.30
2018-07-27T23:39:57.327Z,90.00
2018-07-27T23:42:29.715Z,89.90
2018-07-27T23:45:01.202Z,90.00
2018-07-27T23:50:04.405Z,89.70
2018-07-27T23:52:36.531Z,89.40
2018-07-27T23:57:39.769Z,89.40
